Time;durP1;ratioP1;P1;durP2;ratioP2;P2;SDS_P1;SDS_P2;PMS_P1;PMS_P2;Temp;Humidity;BMP_temperature;BMP_pressure;BME280_temperature;BME280_humidity;BME280_pressure;Samples;Min_cycle;Max_cycle;Signal;HPM_P1;HPM_P2
2023/05/25 00:01:42;;;;;;;13.52;8.30;;;;;;;12.20;71.94;99620.38;6212903;23;20040;-80
2023/05/25 00:04:09;;;;;;;14.57;7.90;;;;;;;12.18;71.86;99628.66;6187446;23;20095;-80
2023/05/25 00:06:36;;;;;;;18.52;8.15;;;;;;;12.10;72.03;99621.00;6214437;23;20011;-80
2023/05/25 00:09:01;;;;;;;18.10;8.00;;;;;;;12.12;71.72;99618.91;6189569;23;20012;-80
2023/05/25 00:11:27;;;;;;;14.43;7.82;;;;;;;12.10;71.91;99618.31;6213026;23;20008;-80
2023/05/25 00:13:52;;;;;;;15.55;8.00;;;;;;;11.98;72.14;99605.00;6183879;23;20008;-80
2023/05/25 00:16:18;;;;;;;14.27;8.18;;;;;;;12.13;71.71;99630.41;6188057;23;20019;-80
2023/05/25 00:18:43;;;;;;;14.85;7.75;;;;;;;12.13;71.63;99625.88;6213330;23;20057;-80
2023/05/25 00:21:09;;;;;;;14.50;7.90;;;;;;;12.01;71.62;99625.13;6238670;22;20061;-80
2023/05/25 00:23:35;;;;;;;17.45;8.32;;;;;;;11.80;71.56;99599.00;6209117;23;20036;-80
2023/05/25 00:26:02;;;;;;;17.58;8.75;;;;;;;11.92;71.69;99618.53;6213601;23;20492;-80
2023/05/25 00:28:27;;;;;;;24.13;9.25;;;;;;;11.92;71.59;99627.38;6211043;23;20000;-81
2023/05/25 00:30:53;;;;;;;15.70;8.48;;;;;;;11.84;71.83;99622.38;6211829;23;20306;-80
2023/05/25 00:33:18;;;;;;;18.40;8.27;;;;;;;11.86;71.49;99630.19;6188858;23;20008;-80
2023/05/25 00:35:43;;;;;;;17.85;9.02;;;;;;;11.74;71.42;99616.84;6184163;23;20095;-80
2023/05/25 00:38:18;;;;;;;20.05;8.70;;;;;;;11.70;71.89;99617.53;6209345;23;20607;-80
2023/05/25 00:40:44;;;;;;;18.88;9.10;;;;;;;11.72;71.56;99628.81;6211909;23;20087;-80
2023/05/25 00:43:11;;;;;;;26.67;9.90;;;;;;;11.61;71.75;99603.69;6212061;23;20381;-80
2023/05/25 00:45:37;;;;;;;13.88;8.00;;;;;;;11.63;71.92;99612.28;6214653;23;20069;-80
2023/05/25 00:48:04;;;;;;;17.17;9.73;;;;;;;11.71;71.41;99621.81;6209538;23;20007;-80
2023/05/25 00:50:38;;;;;;;28.80;9.82;;;;;;;11.63;71.36;99609.63;6238828;23;20004;-80
2023/05/25 00:53:05;;;;;;;14.13;9.13;;;;;;;11.70;71.58;99621.03;6187382;23;20313;-80
2023/05/25 00:55:36;;;;;;;22.50;9.63;;;;;;;11.71;71.42;99630.66;6214099;23;20012;-81
2023/05/25 00:58:03;;;;;;;18.40;9.70;;;;;;;11.64;71.39;99611.22;6188974;23;20008;-81
2023/05/25 01:00:31;;;;;;;25.08;9.52;;;;;;;11.72;72.08;99628.81;6187693;23;20004;-80
2023/05/25 01:02:58;;;;;;;20.15;10.20;;;;;;;11.59;72.16;99594.28;6211927;23;20008;-80
2023/05/25 01:05:28;;;;;;;15.23;9.50;;;;;;;11.69;72.50;99614.06;6240712;22;20012;-80
2023/05/25 01:07:55;;;;;;;18.10;9.68;;;;;;;11.75;72.01;99618.44;6214002;23;20016;-80
2023/05/25 01:10:23;;;;;;;20.10;9.45;;;;;;;11.77;72.08;99626.25;6214469;23;20008;-80
2023/05/25 01:12:52;;;;;;;18.60;10.82;;;;;;;11.59;72.71;99621.03;6213798;23;20436;-80
2023/05/25 01:15:19;;;;;;;18.95;10.27;;;;;;;11.72;72.56;99624.28;6241145;22;20004;-81
2023/05/25 01:17:45;;;;;;;17.33;10.15;;;;;;;11.75;72.44;99618.44;6242517;22;20436;-80
2023/05/25 01:20:11;;;;;;;27.02;10.60;;;;;;;11.72;72.21;99613.59;6241031;23;20066;-80
2023/05/25 01:22:42;;;;;;;26.00;10.80;;;;;;;11.69;72.82;99613.22;6164912;23;20332;-81
2023/05/25 01:25:36;;;;;;;23.65;8.55;;;;;;;11.71;72.84;99621.81;6240896;23;20011;-80
2023/05/25 01:28:13;;;;;;;23.58;9.93;;;;;;;11.72;73.04;99626.97;6214067;23;20023;-80
2023/05/25 01:30:41;;;;;;;16.15;9.23;;;;;;;11.68;73.16;99612.44;6241140;23;20023;-81
2023/05/25 01:33:07;;;;;;;20.50;10.02;;;;;;;11.59;73.26;99605.81;6212021;23;20309;-81
2023/05/25 01:35:34;;;;;;;14.73;9.38;;;;;;;11.73;73.11;99617.88;6213559;23;20007;-81
2023/05/25 01:38:00;;;;;;;21.17;10.68;;;;;;;11.66;72.76;99609.16;6188704;23;20007;-81
2023/05/25 01:40:26;;;;;;;22.05;10.07;;;;;;;11.78;73.01;99627.88;6184106;23;20467;-80
2023/05/25 01:42:51;;;;;;;16.58;9.77;;;;;;;11.75;73.48;99625.69;6209861;23;20011;-80
2023/05/25 01:45:17;;;;;;;21.50;10.55;;;;;;;11.76;73.56;99620.09;6241408;23;20004;-80
2023/05/25 01:48:21;;;;;;;21.60;9.98;;;;;;;11.70;73.41;99621.03;6242518;23;20008;-80
2023/05/25 01:50:53;;;;;;;18.33;9.70;;;;;;;11.62;73.75;99624.03;6131049;23;20391;-81
2023/05/25 01:53:23;;;;;;;15.80;10.65;;;;;;;11.68;74.22;99625.00;6213442;23;20024;-81
2023/05/25 01:55:51;;;;;;;19.88;9.57;;;;;;;11.60;74.04;99623.44;6214097;23;20027;-80
2023/05/25 01:58:18;;;;;;;16.80;10.48;;;;;;;11.57;74.22;99609.75;6242338;23;20469;-80
2023/05/25 02:00:46;;;;;;;16.55;9.63;;;;;;;11.61;74.05;99611.72;6214716;23;20015;-80
2023/05/25 02:03:12;;;;;;;22.55;10.65;;;;;;;11.58;74.16;99616.72;6187173;23;20008;-80
2023/05/25 02:05:40;;;;;;;21.40;11.20;;;;;;;11.61;74.58;99619.75;6190543;23;20467;-80
2023/05/25 02:08:05;;;;;;;22.30;11.48;;;;;;;11.49;74.63;99618.16;6242716;22;20004;-80
2023/05/25 02:10:31;;;;;;;21.85;10.48;;;;;;;11.53;74.76;99613.94;6215336;23;20015;-80
2023/05/25 02:12:56;;;;;;;22.00;11.77;;;;;;;11.61;74.38;99624.28;6188966;23;20016;-80
2023/05/25 02:15:21;;;;;;;18.80;11.35;;;;;;;11.52;74.40;99617.66;6188271;23;20100;-81
2023/05/25 02:17:47;;;;;;;16.30;11.07;;;;;;;11.47;74.74;99620.22;6216593;23;20004;-80
2023/05/25 02:20:12;;;;;;;20.45;11.10;;;;;;;11.53;74.47;99609.41;6216502;23;20087;-80
2023/05/25 02:22:38;;;;;;;22.05;12.30;;;;;;;11.57;74.29;99625.78;6215834;23;20054;-80
2023/05/25 02:25:03;;;;;;;21.77;12.93;;;;;;;11.39;75.28;99615.25;6216264;23;20012;-80
2023/05/25 02:27:29;;;;;;;20.42;11.48;;;;;;;11.48;75.54;99617.31;6217729;23;20019;-80
2023/05/25 02:29:55;;;;;;;23.17;12.10;;;;;;;11.57;75.53;99625.78;6215027;23;20032;-80
2023/05/25 02:32:21;;;;;;;30.25;13.32;;;;;;;11.54;74.82;99611.03;6216627;23;20035;-80
2023/05/25 02:34:46;;;;;;;24.55;13.75;;;;;;;11.52;74.63;99607.78;6166128;23;20004;-80
2023/05/25 02:37:12;;;;;;;25.73;12.93;;;;;;;11.42;75.11;99593.41;6217407;23;20041;-80
2023/05/25 02:39:37;;;;;;;26.77;15.05;;;;;;;11.31;74.48;99621.78;6244270;23;20344;-80
2023/05/25 02:42:02;;;;;;;25.35;12.32;;;;;;;11.36;75.20;99611.16;6244619;23;20000;-80
2023/05/25 02:44:28;;;;;;;25.45;13.70;;;;;;;11.44;74.47;99600.13;6215782;23;20015;-80
2023/05/25 02:46:53;;;;;;;26.58;14.60;;;;;;;11.24;74.27;99621.06;6191218;23;20012;-80
2023/05/25 02:49:18;;;;;;;23.42;13.48;;;;;;;11.26;74.72;99608.28;6215137;23;20016;-80
2023/05/25 02:51:44;;;;;;;28.83;14.10;;;;;;;11.37;74.71;99610.13;6216528;23;20019;-80
2023/05/25 02:54:09;;;;;;;29.33;13.50;;;;;;;11.32;74.31;99607.34;6215526;23;20091;-80
2023/05/25 02:56:35;;;;;;;27.52;14.95;;;;;;;11.40;74.69;99628.38;6216952;23;20015;-80
2023/05/25 02:59:00;;;;;;;24.85;13.50;;;;;;;11.33;74.12;99614.34;6215913;23;20395;-81
2023/05/25 03:01:29;;;;;;;23.80;13.73;;;;;;;11.29;74.73;99619.31;6217004;23;20004;-80
2023/05/25 03:03:55;;;;;;;33.90;14.45;;;;;;;11.23;74.56;99616.75;6192512;23;20019;-80
2023/05/25 03:06:21;;;;;;;25.67;15.32;;;;;;;11.06;74.95;99611.31;6212858;23;20012;-81
2023/05/25 03:08:47;;;;;;;27.90;14.52;;;;;;;11.12;74.56;99607.72;6217993;23;20425;-80
2023/05/25 03:11:13;;;;;;;26.15;15.60;;;;;;;11.21;74.71;99611.66;6218025;23;20010;-80
2023/05/25 03:13:38;;;;;;;26.45;14.75;;;;;;;11.35;74.41;99622.09;6193856;23;20091;-80
2023/05/25 03:16:03;;;;;;;33.10;15.85;;;;;;;11.30;74.46;99626.28;6166849;23;20008;-80
2023/05/25 03:18:29;;;;;;;23.27;14.38;;;;;;;11.34;74.49;99637.31;6242541;23;20035;-80
2023/05/25 03:20:54;;;;;;;29.70;15.43;;;;;;;11.06;74.83;99639.88;6212544;23;20007;-80
2023/05/25 03:23:20;;;;;;;25.35;15.98;;;;;;;10.88;75.69;99626.63;6187516;23;20758;-80
2023/05/25 03:25:45;;;;;;;24.60;15.25;;;;;;;11.16;74.53;99621.44;6212904;23;20008;-80
2023/05/25 03:28:11;;;;;;;37.03;16.02;;;;;;;11.20;74.68;99628.72;6213070;23;20008;-80
2023/05/25 03:30:36;;;;;;;34.00;16.67;;;;;;;11.27;74.25;99642.78;6189010;23;20022;-80
2023/05/25 03:33:02;;;;;;;28.33;15.68;;;;;;;11.21;74.99;99638.38;6192378;23;20011;-80
2023/05/25 03:35:27;;;;;;;37.17;19.13;;;;;;;11.07;74.71;99639.66;6214767;23;20096;-80
2023/05/25 03:37:52;;;;;;;31.35;17.63;;;;;;;11.01;74.94;99653.94;6188759;23;20008;-80
2023/05/25 03:40:18;;;;;;;34.05;16.52;;;;;;;11.08;75.54;99635.13;6191153;23;20012;-80
2023/05/25 03:42:43;;;;;;;28.60;15.63;;;;;;;11.04;75.87;99655.34;6189319;23;20050;-79
2023/05/25 03:45:09;;;;;;;37.60;18.17;;;;;;;11.08;76.00;99662.66;6212984;23;20065;-80
2023/05/25 03:47:35;;;;;;;40.58;19.55;;;;;;;10.77;77.56;99657.63;6165002;23;20519;-80
2023/05/25 03:50:02;;;;;;;24.60;16.83;;;;;;;10.66;77.81;99633.59;6241011;23;20348;-79
2023/05/25 03:52:28;;;;;;;29.45;17.48;;;;;;;11.02;76.18;99644.91;6215416;23;20039;-80
2023/05/25 03:54:53;;;;;;;48.30;22.05;;;;;;;10.37;80.09;99673.44;6214280;23;20016;-79
2023/05/25 03:57:18;;;;;;;42.42;23.65;;;;;;;9.82;83.02;99669.19;6163587;23;20008;-80
2023/05/25 03:59:44;;;;;;;35.90;18.85;;;;;;;10.33;80.75;99682.91;6188613;23;20019;-80
2023/05/25 04:02:09;;;;;;;42.70;21.60;;;;;;;9.79;83.94;99688.28;6212661;23;20337;-80
2023/05/25 04:04:35;;;;;;;49.63;24.08;;;;;;;9.92;83.26;99682.81;6239532;23;20018;-80
2023/05/25 04:07:00;;;;;;;38.80;22.02;;;;;;;9.88;83.67;99673.63;6242290;23;20019;-80
2023/05/25 04:09:25;;;;;;;51.45;22.15;;;;;;;9.78;84.23;99684.81;6189472;23;20008;-80
2023/05/25 04:11:51;;;;;;;47.42;21.33;;;;;;;9.83;83.62;99679.63;6240797;23;20012;-80
2023/05/25 04:14:19;;;;;;;40.85;20.52;;;;;;;10.38;80.70;99691.06;6187721;23;20383;-79
2023/05/25 04:16:44;;;;;;;44.38;22.73;;;;;;;10.17;82.47;99685.41;6237666;23;20046;-80
2023/05/25 04:19:10;;;;;;;49.38;24.08;;;;;;;9.70;84.54;99692.28;6187499;23;20010;-80
2023/05/25 04:21:35;;;;;;;49.25;22.25;;;;;;;9.73;84.95;99681.19;6209816;23;20332;-79
2023/05/25 04:24:01;;;;;;;40.95;22.33;;;;;;;10.01;84.26;99681.47;6188725;23;20015;-79
2023/05/25 04:26:26;;;;;;;39.03;19.42;;;;;;;10.37;81.63;99659.28;6188513;23;20015;-79
2023/05/25 04:28:54;;;;;;;45.53;22.23;;;;;;;9.90;84.87;99684.06;6211472;23;20020;-79
2023/05/25 04:31:20;;;;;;;37.58;19.73;;;;;;;10.39;82.55;99682.03;6189236;23;20019;-79
2023/05/25 04:33:45;;;;;;;34.25;20.17;;;;;;;10.42;81.91;99686.91;6210919;23;20008;-79
2023/05/25 04:36:13;;;;;;;35.55;18.45;;;;;;;10.52;81.77;99681.03;6189911;23;20030;-80
2023/05/25 04:38:38;;;;;;;37.97;19.17;;;;;;;10.19;83.01;99678.81;6190982;23;20070;-79
2023/05/25 04:41:05;;;;;;;31.48;19.40;;;;;;;9.97;83.66;99682.13;6211848;23;20016;-80
2023/05/25 04:43:30;;;;;;;30.40;17.83;;;;;;;10.49;81.60;99676.94;6189941;23;20012;-79
2023/05/25 04:45:58;;;;;;;30.00;16.30;;;;;;;11.12;79.59;99689.72;6211595;23;20019;-80
2023/05/25 04:48:24;;;;;;;31.33;17.17;;;;;;;10.87;79.81;99686.44;6211055;23;20011;-79
2023/05/25 04:50:50;;;;;;;38.78;18.13;;;;;;;10.30;81.88;99691.38;6213230;23;20004;-79
2023/05/25 04:53:16;;;;;;;41.55;19.92;;;;;;;9.92;84.06;99700.66;6161350;23;20012;-78
2023/05/25 04:55:41;;;;;;;43.05;18.90;;;;;;;9.84;84.32;99680.44;6208171;23;20294;-79
2023/05/25 04:58:06;;;;;;;29.17;16.63;;;;;;;10.35;82.25;99672.03;6185755;23;20043;-79
2023/05/25 05:00:33;;;;;;;45.15;21.83;;;;;;;10.24;82.07;99684.25;6212575;23;20008;-79
2023/05/25 05:02:59;;;;;;;39.28;20.55;;;;;;;10.08;82.71;99705.38;6215655;23;20031;-79
2023/05/25 05:05:25;;;;;;;43.22;21.52;;;;;;;10.18;83.45;99709.19;6242491;23;20391;-79
2023/05/25 05:07:50;;;;;;;44.83;19.48;;;;;;;10.27;82.42;99697.16;6214716;23;20000;-79
2023/05/25 05:10:16;;;;;;;42.78;20.90;;;;;;;10.27;82.23;99707.00;6190483;23;20012;-79
2023/05/25 05:12:42;;;;;;;46.28;21.05;;;;;;;10.27;82.06;99713.16;6190806;23;20004;-79
2023/05/25 05:15:07;;;;;;;36.75;21.05;;;;;;;10.65;80.83;99718.19;6186373;23;20095;-80
2023/05/25 05:17:33;;;;;;;34.35;17.92;;;;;;;10.82;80.08;99703.16;6214644;23;20004;-79
2023/05/25 05:19:58;;;;;;;44.88;22.77;;;;;;;9.82;83.20;99722.50;6242697;23;20008;-79
2023/05/25 05:22:23;;;;;;;34.40;17.33;;;;;;;10.85;80.24;99720.59;6191125;23;20388;-79
2023/05/25 05:24:49;;;;;;;43.05;20.42;;;;;;;10.47;81.54;99735.09;6216039;23;20073;-79
2023/05/25 05:27:15;;;;;;;41.72;22.33;;;;;;;10.29;81.93;99728.94;6242252;23;20016;-79
2023/05/25 05:29:41;;;;;;;48.17;21.75;;;;;;;10.23;82.47;99738.69;6241863;23;20090;-79
2023/05/25 05:32:07;;;;;;;39.28;22.70;;;;;;;10.09;81.99;99739.03;6187506;23;20073;-79
2023/05/25 05:34:32;;;;;;;40.03;19.92;;;;;;;10.18;83.49;99727.84;6242828;23;20074;-79
2023/05/25 05:37:00;;;;;;;50.85;21.50;;;;;;;10.55;81.05;99736.59;6241890;23;20011;-79
2023/05/25 05:39:26;;;;;;;42.42;20.70;;;;;;;10.30;82.68;99744.75;6215749;23;20015;-80
2023/05/25 05:41:52;;;;;;;44.00;21.08;;;;;;;9.85;83.90;99748.72;6242722;23;20746;-79
2023/05/25 05:44:20;;;;;;;37.80;18.95;;;;;;;10.24;83.22;99726.94;6215957;23;20020;-79
2023/05/25 05:46:45;;;;;;;46.72;22.63;;;;;;;10.15;81.48;99752.31;6214219;23;20344;-79
2023/05/25 05:49:10;;;;;;;41.40;22.40;;;;;;;10.04;83.11;99763.72;6191379;23;20024;-79
2023/05/25 05:51:36;;;;;;;41.33;20.95;;;;;;;10.22;83.87;99763.72;6191199;23;20498;-79
2023/05/25 05:54:01;;;;;;;43.55;22.65;;;;;;;10.92;79.54;99754.16;6242618;23;20091;-80
2023/05/25 05:56:27;;;;;;;44.63;22.27;;;;;;;10.21;82.62;99766.63;6191108;23;20062;-80
2023/05/25 05:58:53;;;;;;;41.83;22.30;;;;;;;10.62;81.71;99772.03;6191251;23;20004;-79
2023/05/25 06:01:18;;;;;;;44.88;24.33;;;;;;;9.98;83.79;99772.56;6215947;23;20019;-80
2023/05/25 06:03:44;;;;;;;45.80;24.50;;;;;;;9.51;85.61;99750.09;6215440;23;20004;-79
2023/05/25 06:06:10;;;;;;;51.67;24.73;;;;;;;10.14;84.24;99801.38;6216314;23;20150;-80
2023/05/25 06:08:35;;;;;;;55.03;24.55;;;;;;;10.46;81.83;99789.47;6242778;22;20009;-79
2023/05/25 06:11:01;;;;;;;36.85;20.25;;;;;;;10.56;81.69;99786.28;6216078;23;20313;-79
2023/05/25 06:13:26;;;;;;;44.40;25.23;;;;;;;10.20;82.82;99771.13;6213731;23;20016;-79
2023/05/25 06:15:52;;;;;;;53.00;26.08;;;;;;;9.87;84.49;99789.34;6185637;23;20019;-79
2023/05/25 06:18:17;;;;;;;54.95;28.33;;;;;;;9.50;85.32;99792.97;6213673;23;20012;-79
2023/05/25 06:20:43;;;;;;;49.03;24.92;;;;;;;9.20;86.45;99770.66;6241368;23;20004;-80
2023/05/25 06:23:11;;;;;;;48.17;26.10;;;;;;;9.37;85.76;99793.06;6215790;23;20034;-80
2023/05/25 06:25:36;;;;;;;41.67;23.77;;;;;;;10.04;84.72;99797.56;6216176;23;20009;-80
2023/05/25 06:28:02;;;;;;;43.25;22.58;;;;;;;10.51;81.06;99786.16;6216159;23;20061;-80
2023/05/25 06:30:27;;;;;;;37.85;19.98;;;;;;;11.21;78.76;99793.38;6243268;23;20455;-80
2023/05/25 06:32:52;;;;;;;32.60;20.92;;;;;;;10.73;80.77;99803.31;6218079;23;20015;-80
2023/05/25 06:35:21;;;;;;;39.65;21.40;;;;;;;10.85;80.20;99776.66;6192594;23;20008;-80
2023/05/25 06:37:49;;;;;;;37.97;20.77;;;;;;;11.49;77.25;99794.59;6192963;23;20380;-80
2023/05/25 06:40:15;;;;;;;49.30;26.00;;;;;;;11.03;79.31;99800.66;6193138;23;20065;-80
2023/05/25 06:42:41;;;;;;;50.30;24.88;;;;;;;10.68;80.35;99802.38;6245233;22;20019;-80
2023/05/25 06:45:08;;;;;;;49.95;24.50;;;;;;;10.19;82.48;99788.19;6217674;23;20004;-80
2023/05/25 06:47:33;;;;;;;55.42;25.15;;;;;;;9.91;82.92;99790.53;6217146;23;20008;-80
2023/05/25 06:49:59;;;;;;;49.42;25.15;;;;;;;10.04;82.69;99793.03;6217616;23;20015;-80
2023/05/25 06:52:28;;;;;;;55.05;24.15;;;;;;;10.09;82.56;99782.50;6217884;23;20015;-80
2023/05/25 06:54:54;;;;;;;40.08;22.75;;;;;;;10.72;81.03;99792.88;6244661;23;20004;-80
2023/05/25 06:57:20;;;;;;;43.88;24.65;;;;;;;10.36;81.26;99783.88;6245260;22;20302;-80
2023/05/25 06:59:45;;;;;;;48.75;24.52;;;;;;;11.02;79.74;99804.34;6218144;23;20011;-80
2023/05/25 07:02:11;;;;;;;35.05;19.95;;;;;;;11.39;78.40;99813.03;6217940;23;20014;-80
2023/05/25 07:04:36;;;;;;;37.80;18.92;;;;;;;11.74;76.87;99814.75;6216963;23;20008;-80
2023/05/25 07:07:02;;;;;;;39.28;19.80;;;;;;;11.17;78.81;99807.41;6244858;23;20008;-80
2023/05/25 07:09:28;;;;;;;46.42;24.90;;;;;;;11.21;78.83;99805.91;6217648;23;20367;-80
2023/05/25 07:11:53;;;;;;;44.28;25.05;;;;;;;11.15;78.39;99810.31;6192950;23;20091;-80
2023/05/25 07:14:18;;;;;;;35.25;19.60;;;;;;;11.59;77.58;99813.53;6244659;23;20012;-80
2023/05/25 07:16:44;;;;;;;35.33;18.50;;;;;;;11.77;76.18;99803.56;6218239;23;20098;-80
2023/05/25 07:19:10;;;;;;;39.10;21.75;;;;;;;12.01;75.66;99810.53;6217626;23;20004;-80
2023/05/25 07:21:36;;;;;;;47.42;21.60;;;;;;;11.87;75.50;99811.84;6245137;22;20336;-80
2023/05/25 07:24:02;;;;;;;36.42;18.15;;;;;;;11.85;75.97;99799.75;6217144;23;20011;-80
2023/05/25 07:26:27;;;;;;;33.20;19.00;;;;;;;12.49;73.54;99806.75;6192521;23;20004;-80
2023/05/25 07:28:53;;;;;;;44.42;23.90;;;;;;;12.13;74.78;99809.72;6217771;23;20375;-80
2023/05/25 07:31:18;;;;;;;46.13;24.42;;;;;;;10.57;78.81;99818.09;6218029;23;20023;-80
2023/05/25 07:33:44;;;;;;;45.38;24.75;;;;;;;10.64;80.32;99822.56;6243952;23;20038;-80
2023/05/25 07:36:09;;;;;;;40.20;22.33;;;;;;;10.91;79.39;99821.97;6244781;23;20008;-80
2023/05/25 07:38:35;;;;;;;42.15;24.23;;;;;;;10.60;78.97;99816.00;6192805;23;20083;-80
2023/05/25 07:41:01;;;;;;;49.22;25.25;;;;;;;10.80;78.55;99801.38;6244870;23;20027;-80
2023/05/25 07:43:26;;;;;;;47.95;24.48;;;;;;;10.74;79.99;99834.34;6244368;23;20011;-79
2023/05/25 07:45:52;;;;;;;42.50;24.17;;;;;;;10.40;80.67;99833.09;6243899;23;20015;-80
2023/05/25 07:48:17;;;;;;;55.10;26.17;;;;;;;10.54;79.97;99809.72;6216949;23;20008;-80
2023/05/25 07:50:43;;;;;;;57.08;27.27;;;;;;;10.29;80.38;99830.34;6217938;23;20062;-79
2023/05/25 07:53:08;;;;;;;47.58;26.75;;;;;;;10.76;79.81;99832.25;6217128;23;20628;-79
2023/05/25 07:55:33;;;;;;;52.95;26.20;;;;;;;11.48;77.06;99823.19;6217791;23;20020;-80
2023/05/25 07:57:59;;;;;;;56.45;27.52;;;;;;;10.88;79.25;99835.78;6192138;23;20008;-79
2023/05/25 08:00:24;;;;;;;52.22;26.70;;;;;;;10.43;80.41;99843.34;6243960;23;20331;-80
2023/05/25 08:02:50;;;;;;;46.95;27.27;;;;;;;11.17;78.91;99828.78;6217580;23;20007;-80
2023/05/25 08:05:15;;;;;;;42.67;23.92;;;;;;;10.89;79.99;99820.56;6217126;23;20015;-79
2023/05/25 08:07:41;;;;;;;44.90;26.23;;;;;;;10.05;80.62;99824.00;6167517;23;20011;-79
2023/05/25 08:10:07;;;;;;;45.60;25.77;;;;;;;10.36;81.57;99829.25;6191958;23;20012;-79
2023/05/25 08:12:33;;;;;;;51.70;24.30;;;;;;;10.92;80.22;99828.13;6192096;23;20035;-79
2023/05/25 08:14:58;;;;;;;55.13;26.23;;;;;;;10.47;80.03;99838.34;6217167;23;20005;-79
2023/05/25 08:17:24;;;;;;;48.42;25.42;;;;;;;10.50;82.08;99844.06;6167421;23;20019;-79
2023/05/25 08:19:49;;;;;;;45.33;24.10;;;;;;;10.81;79.97;99851.06;6192607;23;20012;-79
2023/05/25 08:22:15;;;;;;;42.38;25.75;;;;;;;10.75;78.83;99824.44;6244420;23;20036;-79
2023/05/25 08:24:40;;;;;;;41.28;23.60;;;;;;;11.45;78.40;99837.00;6166613;23;20095;-79
2023/05/25 08:27:06;;;;;;;46.35;25.23;;;;;;;11.27;77.42;99845.06;6192076;23;20058;-79
2023/05/25 08:29:31;;;;;;;40.63;23.80;;;;;;;11.36;77.74;99830.34;6217040;23;20023;-79
2023/05/25 08:31:57;;;;;;;44.60;22.63;;;;;;;11.88;76.40;99840.19;6217283;23;20428;-80
2023/05/25 08:34:22;;;;;;;42.95;22.85;;;;;;;11.43;76.57;99838.25;6216962;23;20004;-79
2023/05/25 08:36:47;;;;;;;41.28;24.63;;;;;;;11.89;76.79;99843.69;6216814;23;20008;-79
2023/05/25 08:39:14;;;;;;;43.08;22.40;;;;;;;11.38;75.83;99844.28;6216519;23;20437;-79
2023/05/25 08:41:41;;;;;;;43.83;22.48;;;;;;;11.80;76.04;99835.22;6216428;23;20061;-79
2023/05/25 08:44:07;;;;;;;34.97;21.58;;;;;;;12.64;75.18;99847.22;6166973;23;20019;-80
2023/05/25 08:46:33;;;;;;;47.35;23.88;;;;;;;12.50;73.29;99824.44;6190763;23;20428;-79
2023/05/25 08:49:03;;;;;;;31.45;19.20;;;;;;;12.68;73.44;99826.94;6216885;23;20330;-80
2023/05/25 08:51:41;;;;;;;46.28;24.08;;;;;;;12.16;73.90;99847.53;6217574;23;20024;-79
2023/05/25 08:54:12;;;;;;;45.95;24.42;;;;;;;12.61;74.37;99853.03;6216187;23;20032;-80
2023/05/25 08:56:51;;;;;;;41.22;24.70;;;;;;;12.65;74.00;99843.47;6216491;23;20082;-80
2023/05/25 08:59:27;;;;;;;39.60;22.10;;;;;;;12.49;73.40;99844.25;6216916;23;20058;-79
2023/05/25 09:02:08;;;;;;;34.80;21.02;;;;;;;12.76;72.53;99851.50;6243812;23;20000;-79
2023/05/25 09:04:33;;;;;;;38.85;21.48;;;;;;;13.03;72.22;99858.97;6216026;23;20044;-80
2023/05/25 09:06:59;;;;;;;34.55;21.25;;;;;;;13.17;72.51;99855.00;6243875;23;20007;-80
2023/05/25 09:09:25;;;;;;;41.13;21.92;;;;;;;13.02;72.20;99852.00;6191153;23;20035;-79
2023/05/25 09:11:51;;;;;;;36.38;19.38;;;;;;;12.87;72.53;99857.84;6243592;23;20008;-79
2023/05/25 09:14:17;;;;;;;41.05;21.20;;;;;;;13.01;72.58;99847.69;6243374;23;20008;-80
2023/05/25 09:16:42;;;;;;;36.58;19.38;;;;;;;13.23;71.75;99838.75;6191674;23;20019;-80
2023/05/25 09:19:08;;;;;;;43.22;21.08;;;;;;;12.91;72.37;99836.78;6192073;23;20030;-80
2023/05/25 09:21:34;;;;;;;36.33;21.20;;;;;;;12.88;71.93;99851.47;6191981;23;20028;-79
2023/05/25 09:24:00;;;;;;;29.48;20.55;;;;;;;12.90;72.92;99870.78;6190747;23;20070;-80
2023/05/25 09:26:26;;;;;;;32.88;19.95;;;;;;;12.61;72.28;99863.75;6191894;23;20008;-80
2023/05/25 09:28:51;;;;;;;34.83;18.85;;;;;;;12.69;73.30;99866.88;6243526;23;20004;-79
2023/05/25 09:31:17;;;;;;;39.08;22.85;;;;;;;12.71;72.55;99863.97;6190908;23;20008;-79
2023/05/25 09:33:44;;;;;;;33.47;19.38;;;;;;;11.87;74.41;99846.63;6215148;23;20143;-79
2023/05/25 09:36:13;;;;;;;31.63;19.10;;;;;;;12.41;73.17;99857.97;6243358;23;20701;-80
2023/05/25 09:38:39;;;;;;;31.95;16.77;;;;;;;12.97;74.08;99871.47;6216665;23;20011;-79
2023/05/25 09:41:05;;;;;;;27.60;17.95;;;;;;;13.09;72.64;99866.06;6243568;23;20012;-80
2023/05/25 09:43:31;;;;;;;28.75;16.05;;;;;;;13.42;72.18;99856.25;6215353;23;20479;-80
2023/05/25 09:45:57;;;;;;;31.67;17.67;;;;;;;13.45;72.13;99847.69;6242415;23;20016;-80
2023/05/25 09:48:23;;;;;;;33.33;18.05;;;;;;;13.34;71.21;99859.34;6190708;23;20012;-80
2023/05/25 09:50:48;;;;;;;27.85;18.25;;;;;;;13.06;70.34;99862.00;6216772;23;20004;-79
2023/05/25 09:53:14;;;;;;;27.55;18.08;;;;;;;13.61;69.70;99843.41;6216844;23;20012;-80
2023/05/25 09:55:39;;;;;;;24.00;14.35;;;;;;;14.21;69.61;99865.81;6216466;23;20035;-80
2023/05/25 09:58:06;;;;;;;20.38;14.43;;;;;;;14.74;68.33;99859.03;6191551;23;20420;-80
2023/05/25 10:00:31;;;;;;;20.98;12.15;;;;;;;15.25;67.27;99861.19;6191428;23;20034;-80
2023/05/25 10:02:56;;;;;;;25.08;14.32;;;;;;;14.63;66.91;99857.28;6243139;23;20478;-80
2023/05/25 10:05:22;;;;;;;22.60;16.08;;;;;;;14.12;67.68;99845.00;6216586;23;20008;-80
2023/05/25 10:07:49;;;;;;;19.38;12.45;;;;;;;14.57;69.23;99859.06;6193322;23;20008;-80
2023/05/25 10:10:15;;;;;;;27.65;15.80;;;;;;;15.26;67.17;99860.16;6193608;23;20046;-80
2023/05/25 10:12:42;;;;;;;27.35;14.90;;;;;;;14.53;66.87;99839.16;6244900;23;20008;-80
2023/05/25 10:15:09;;;;;;;18.58;10.52;;;;;;;15.10;67.74;99852.97;6243590;23;20062;-80
2023/05/25 10:17:40;;;;;;;24.00;14.30;;;;;;;15.29;65.00;99859.63;6242758;23;20420;-80
2023/05/25 10:20:07;;;;;;;16.58;10.48;;;;;;;15.93;65.55;99855.09;6218133;23;20007;-80
2023/05/25 10:23:08;;;;;;;29.80;15.00;;;;;;;14.09;67.67;99862.41;6218053;23;20462;-79
2023/05/25 10:25:41;;;;;;;20.80;13.63;;;;;;;14.39;67.95;99850.50;6217823;23;20454;-80
2023/05/25 10:28:34;;;;;;;26.27;16.15;;;;;;;14.36;68.72;99854.50;6216726;23;20001;-80
2023/05/25 10:31:00;;;;;;;24.05;14.60;;;;;;;14.02;67.84;99839.50;6243993;23;20011;-80
2023/05/25 10:33:27;;;;;;;24.67;14.63;;;;;;;13.78;68.96;99848.78;6217955;23;20004;-80
2023/05/25 10:35:53;;;;;;;19.98;12.73;;;;;;;13.97;70.50;99850.16;6215441;23;20016;-80
2023/05/25 10:38:19;;;;;;;25.85;15.63;;;;;;;13.57;68.88;99847.63;6244539;23;20023;-79
2023/05/25 10:40:52;;;;;;;24.98;15.77;;;;;;;14.12;70.45;99837.78;6241266;22;20016;-80
2023/05/25 10:43:19;;;;;;;23.25;14.38;;;;;;;14.47;67.70;99844.69;6216266;23;20095;-80
2023/05/25 10:45:45;;;;;;;26.90;14.27;;;;;;;14.41;67.79;99846.53;6241824;23;20010;-80
2023/05/25 10:48:11;;;;;;;23.73;13.20;;;;;;;14.70;68.11;99823.75;6241067;23;20012;-80
2023/05/25 10:50:36;;;;;;;26.27;14.55;;;;;;;15.40;66.82;99828.25;6244331;23;20008;-80
2023/05/25 10:53:06;;;;;;;24.88;15.85;;;;;;;14.84;66.07;99834.94;6216179;23;20008;-80
2023/05/25 10:55:50;;;;;;;25.05;13.15;;;;;;;15.00;67.15;99836.75;6244317;23;20472;-80
2023/05/25 10:58:17;;;;;;;15.63;10.80;;;;;;;15.74;66.06;99843.13;6216327;23;20014;-79
2023/05/25 11:00:57;;;;;;;20.85;10.93;;;;;;;16.21;64.21;99830.50;6218125;23;20546;-80
2023/05/25 11:03:45;;;;;;;27.17;14.30;;;;;;;15.67;65.86;99835.25;6243475;23;20367;-80
2023/05/25 11:06:16;;;;;;;27.25;14.25;;;;;;;15.90;63.94;99833.28;6216974;23;20344;-80
2023/05/25 11:08:48;;;;;;;27.05;16.80;;;;;;;14.78;65.73;99834.09;6244276;23;20016;-80
2023/05/25 11:11:14;;;;;;;25.38;15.10;;;;;;;15.33;63.65;99824.97;6244294;22;20082;-80
2023/05/25 11:13:44;;;;;;;25.90;13.35;;;;;;;15.45;63.29;99814.88;6217595;23;20376;-80
2023/05/25 11:16:13;;;;;;;16.48;11.52;;;;;;;16.88;62.89;99822.47;6217545;23;20008;-80
2023/05/25 11:19:00;;;;;;;12.70;8.75;;;;;;;17.82;61.86;99819.34;6244271;22;20414;-80